Time;durP1;ratioP1;P1;durP2;ratioP2;P2;SDS_P1;SDS_P2;PMS_P1;PMS_P2;Temp;Humidity;BMP_temperature;BMP_pressure;BME280_temperature;BME280_humidity;BME280_pressure;Samples;Min_cycle;Max_cycle;Signal;HPM_P1;HPM_P2
2021/07/05 00:00:39;;;;;;;0.80;0.68;;;;;;;;;;5029607;28;20037;-75
2021/07/05 00:03:04;;;;;;;1.20;0.70;;;;;;;;;;5033342;28;20040;-77
2021/07/05 00:05:29;;;;;;;1.33;0.77;;;;;;;;;;5030462;28;20021;-76
2021/07/05 00:07:55;;;;;;;1.73;0.85;;;;;;;;;;5037050;28;20385;-77
2021/07/05 00:10:21;;;;;;;1.83;0.65;;;;;;;;;;5033152;28;20013;-76
2021/07/05 00:12:48;;;;;;;0.98;0.60;;;;;;;;;;5033115;28;20522;-77
2021/07/05 00:15:15;;;;;;;0.98;0.82;;;;;;;;;;5035274;28;20029;-76
2021/07/05 00:17:40;;;;;;;0.70;0.65;;;;;;;;;;5033595;28;20040;-74
2021/07/05 00:20:06;;;;;;;1.40;0.90;;;;;;;;;;5027929;28;20022;-77
2021/07/05 00:22:31;;;;;;;1.48;0.90;;;;;;;;;;5031181;28;20069;-77
2021/07/05 00:24:56;;;;;;;1.23;0.70;;;;;;;;;;5032949;28;20045;-74
2021/07/05 00:27:21;;;;;;;1.63;0.82;;;;;;;;;;5045517;28;20461;-76
2021/07/05 00:29:47;;;;;;;1.48;0.70;;;;;;;;;;5037128;28;20029;-76
2021/07/05 00:32:12;;;;;;;0.90;0.60;;;;;;;;;;5026829;28;20029;-76
2021/07/05 00:34:37;;;;;;;0.82;0.80;;;;;;;;;;5033229;28;20029;-75
2021/07/05 00:37:02;;;;;;;1.95;0.80;;;;;;;;;;5032282;28;20484;-76
2021/07/05 00:39:27;;;;;;;1.88;0.70;;;;;;;;;;5033975;28;20025;-76
2021/07/05 00:41:52;;;;;;;2.30;0.90;;;;;;;;;;5023487;28;20042;-77
2021/07/05 00:44:18;;;;;;;0.93;0.63;;;;;;;;;;5025618;28;20318;-76
2021/07/05 00:46:43;;;;;;;2.28;0.70;;;;;;;;;;5043886;28;20329;-76
2021/07/05 00:49:08;;;;;;;1.38;1.00;;;;;;;;;;5034254;28;20036;-76
2021/07/05 00:51:33;;;;;;;1.00;0.80;;;;;;;;;;5034772;28;20021;-77
2021/07/05 00:53:59;;;;;;;1.25;0.80;;;;;;;;;;5031875;28;20041;-77
2021/07/05 00:56:24;;;;;;;1.75;0.80;;;;;;;;;;5039819;28;20029;-76
2021/07/05 00:58:50;;;;;;;1.45;0.90;;;;;;;;;;5029596;28;20132;-78
2021/07/05 01:01:16;;;;;;;1.15;0.80;;;;;;;;;;5029118;28;20098;-76
2021/07/05 01:03:42;;;;;;;1.80;0.95;;;;;;;;;;5031646;28;20481;-76
2021/07/05 01:06:07;;;;;;;1.33;1.10;;;;;;;;;;5026545;28;20021;-77
2021/07/05 01:08:32;;;;;;;1.08;0.90;;;;;;;;;;5031934;28;20125;-77
2021/07/05 01:10:57;;;;;;;2.10;0.90;;;;;;;;;;5029181;28;20030;-77
2021/07/05 01:13:22;;;;;;;1.85;0.95;;;;;;;;;;5033710;28;20026;-77
2021/07/05 01:15:47;;;;;;;2.63;0.95;;;;;;;;;;5029455;28;20032;-77
2021/07/05 01:18:13;;;;;;;1.92;1.00;;;;;;;;;;5036294;28;20029;-76
2021/07/05 01:20:39;;;;;;;1.42;0.80;;;;;;;;;;5028953;28;20427;-76
2021/07/05 01:23:05;;;;;;;2.78;0.90;;;;;;;;;;5028989;28;20017;-77
2021/07/05 01:25:31;;;;;;;1.73;1.10;;;;;;;;;;5031418;28;20032;-76
2021/07/05 01:27:58;;;;;;;1.45;1.00;;;;;;;;;;5028892;28;20056;-77
2021/07/05 01:30:23;;;;;;;2.22;1.00;;;;;;;;;;5027072;28;20029;-75
2021/07/05 01:32:49;;;;;;;2.72;1.00;;;;;;;;;;5039634;28;20652;-77
2021/07/05 01:35:15;;;;;;;2.97;1.10;;;;;;;;;;5027359;28;20025;-77
2021/07/05 01:37:40;;;;;;;1.77;1.35;;;;;;;;;;5043845;28;20108;-76
2021/07/05 01:40:07;;;;;;;1.30;1.08;;;;;;;;;;5040549;28;20035;-77
2021/07/05 01:42:32;;;;;;;2.10;1.10;;;;;;;;;;5032694;28;20167;-76
2021/07/05 01:44:57;;;;;;;3.17;1.30;;;;;;;;;;5036987;28;20504;-77
2021/07/05 01:47:22;;;;;;;2.13;0.90;;;;;;;;;;5035769;28;20434;-76
2021/07/05 01:49:47;;;;;;;4.57;1.20;;;;;;;;;;5028611;28;20540;-77
2021/07/05 01:52:13;;;;;;;1.85;1.13;;;;;;;;;;5026830;28;20116;-75
2021/07/05 01:54:39;;;;;;;2.80;1.23;;;;;;;;;;5039268;28;20036;-76
2021/07/05 01:57:04;;;;;;;1.73;1.08;;;;;;;;;;5034326;28;20111;-76
2021/07/05 01:59:29;;;;;;;2.42;0.93;;;;;;;;;;5028590;28;20037;-77
2021/07/05 02:01:54;;;;;;;2.65;1.25;;;;;;;;;;5031162;28;20037;-78
2021/07/05 02:04:20;;;;;;;2.40;1.13;;;;;;;;;;5035817;28;20061;-77
2021/07/05 02:06:45;;;;;;;2.80;1.10;;;;;;;;;;5028112;28;20133;-77
2021/07/05 02:09:10;;;;;;;1.55;1.02;;;;;;;;;;5028160;28;20025;-72
2021/07/05 02:11:36;;;;;;;1.33;1.00;;;;;;;;;;5029887;28;20473;-72
2021/07/05 02:14:02;;;;;;;1.73;1.10;;;;;;;;;;5034219;28;20029;-72
2021/07/05 02:16:27;;;;;;;2.83;1.58;;;;;;;;;;5037325;28;20025;-72
2021/07/05 02:18:52;;;;;;;1.83;1.20;;;;;;;;;;5036456;28;20074;-73
2021/07/05 02:21:18;;;;;;;1.38;1.00;;;;;;;;;;5038811;28;20394;-75
2021/07/05 02:23:43;;;;;;;4.32;1.30;;;;;;;;;;5031748;28;20108;-74
2021/07/05 02:26:08;;;;;;;1.48;1.20;;;;;;;;;;5044322;28;20515;-73
2021/07/05 02:28:35;;;;;;;4.28;1.30;;;;;;;;;;5044831;28;20021;-74
2021/07/05 02:31:01;;;;;;;1.30;1.10;;;;;;;;;;5037379;28;20025;-74
2021/07/05 02:33:27;;;;;;;1.38;1.10;;;;;;;;;;5034534;28;20048;-72
2021/07/05 02:35:53;;;;;;;1.20;0.90;;;;;;;;;;5031723;28;20032;-76
2021/07/05 02:38:19;;;;;;;1.27;0.90;;;;;;;;;;5035922;28;20029;-76
2021/07/05 02:40:45;;;;;;;1.13;0.90;;;;;;;;;;5048543;28;20029;-77
2021/07/05 02:43:12;;;;;;;1.98;1.10;;;;;;;;;;5034671;28;20072;-76
2021/07/05 02:45:37;;;;;;;1.58;1.08;;;;;;;;;;5046412;28;20020;-75
2021/07/05 02:48:22;;;;;;;2.45;1.08;;;;;;;;;;5032074;28;20021;-76
2021/07/05 02:50:49;;;;;;;1.80;1.13;;;;;;;;;;5040753;28;20037;-75
2021/07/05 02:53:15;;;;;;;1.95;1.20;;;;;;;;;;5041292;28;20041;-76
2021/07/05 02:55:40;;;;;;;3.30;1.20;;;;;;;;;;5035942;28;20040;-76
2021/07/05 02:58:05;;;;;;;2.95;1.30;;;;;;;;;;5041724;28;20033;-75
2021/07/05 03:00:32;;;;;;;4.97;1.23;;;;;;;;;;5033027;28;20033;-76
2021/07/05 03:02:58;;;;;;;1.83;1.17;;;;;;;;;;5031990;28;20021;-75
2021/07/05 03:05:24;;;;;;;3.05;1.20;;;;;;;;;;5034020;28;20120;-77
2021/07/05 03:07:49;;;;;;;1.92;1.00;;;;;;;;;;5033421;28;20067;-77
2021/07/05 03:10:16;;;;;;;2.22;1.17;;;;;;;;;;5031149;28;20444;-76
2021/07/05 03:12:41;;;;;;;1.98;1.40;;;;;;;;;;5033702;28;20029;-76
2021/07/05 03:15:08;;;;;;;1.23;1.02;;;;;;;;;;5040772;28;20036;-79
2021/07/05 03:17:33;;;;;;;3.28;1.50;;;;;;;;;;5029223;28;20086;-75
2021/07/05 03:19:58;;;;;;;2.38;1.25;;;;;;;;;;5032072;28;20112;-77
2021/07/05 03:22:24;;;;;;;2.50;1.25;;;;;;;;;;5031210;28;20061;-78
2021/07/05 03:24:49;;;;;;;2.88;1.20;;;;;;;;;;5036534;28;20100;-78
2021/07/05 03:27:14;;;;;;;3.90;1.40;;;;;;;;;;5042661;28;20484;-75
2021/07/05 03:29:39;;;;;;;2.40;1.30;;;;;;;;;;5030113;28;20029;-75
2021/07/05 03:32:05;;;;;;;1.50;1.00;;;;;;;;;;5028994;28;20445;-76
2021/07/05 03:34:31;;;;;;;4.38;1.20;;;;;;;;;;5032471;28;20493;-77
2021/07/05 03:36:56;;;;;;;1.75;1.40;;;;;;;;;;5038742;28;20017;-77
2021/07/05 03:39:21;;;;;;;1.73;1.17;;;;;;;;;;5037248;28;20108;-76
2021/07/05 03:41:47;;;;;;;2.45;1.17;;;;;;;;;;5038510;28;20048;-76
2021/07/05 03:44:12;;;;;;;3.45;1.50;;;;;;;;;;5031097;28;20041;-76
2021/07/05 03:46:37;;;;;;;1.73;1.40;;;;;;;;;;5030455;28;20115;-76
2021/07/05 03:49:03;;;;;;;2.00;1.20;;;;;;;;;;5033553;28;20168;-76
2021/07/05 03:51:28;;;;;;;1.65;1.20;;;;;;;;;;5029237;28;20021;-76
2021/07/05 03:53:53;;;;;;;3.55;1.50;;;;;;;;;;5037437;28;20037;-76
2021/07/05 03:56:18;;;;;;;2.65;1.30;;;;;;;;;;5035019;28;20048;-77
2021/07/05 03:58:43;;;;;;;2.28;1.45;;;;;;;;;;5045311;28;20025;-76
2021/07/05 04:01:09;;;;;;;2.40;1.38;;;;;;;;;;5033249;28;20458;-76
2021/07/05 04:03:34;;;;;;;2.47;1.50;;;;;;;;;;5034840;28;20671;-76
2021/07/05 04:05:59;;;;;;;2.95;1.40;;;;;;;;;;5034344;28;20028;-76
2021/07/05 04:08:27;;;;;;;3.38;1.45;;;;;;;;;;5032370;28;20079;-76
2021/07/05 04:10:53;;;;;;;1.83;1.30;;;;;;;;;;5043329;28;21661;-75
2021/07/05 04:13:18;;;;;;;3.63;1.38;;;;;;;;;;5030071;28;20037;-76
2021/07/05 04:15:43;;;;;;;2.33;1.40;;;;;;;;;;5031948;28;20021;-76
2021/07/05 04:18:08;;;;;;;2.30;1.40;;;;;;;;;;5028289;28;20091;-75
2021/07/05 04:20:33;;;;;;;1.65;1.00;;;;;;;;;;5036863;28;20031;-75
2021/07/05 04:22:59;;;;;;;1.55;0.98;;;;;;;;;;5035684;28;20029;-75
2021/07/05 04:25:24;;;;;;;1.98;1.20;;;;;;;;;;5034654;28;20451;-75
2021/07/05 04:27:50;;;;;;;1.63;1.00;;;;;;;;;;5036209;28;20052;-76
2021/07/05 04:30:15;;;;;;;2.08;1.00;;;;;;;;;;5038774;28;20045;-76
2021/07/05 04:32:41;;;;;;;4.13;1.02;;;;;;;;;;5028644;28;20120;-76
2021/07/05 04:35:07;;;;;;;3.42;1.00;;;;;;;;;;5028600;28;20366;-76
2021/07/05 04:37:33;;;;;;;1.10;1.00;;;;;;;;;;5034244;28;20049;-77
2021/07/05 04:39:58;;;;;;;3.45;1.00;;;;;;;;;;5029604;28;20045;-75
2021/07/05 04:42:23;;;;;;;2.45;0.88;;;;;;;;;;5028800;28;20474;-75
2021/07/05 04:44:50;;;;;;;1.50;0.90;;;;;;;;;;5027782;28;20048;-75
2021/07/05 04:47:16;;;;;;;2.38;0.93;;;;;;;;;;5033328;28;20272;-76
2021/07/05 04:49:41;;;;;;;1.67;0.80;;;;;;;;;;5032619;28;20349;-76
2021/07/05 04:52:06;;;;;;;1.25;0.80;;;;;;;;;;5030073;28;20017;-76
2021/07/05 04:54:32;;;;;;;2.42;0.82;;;;;;;;;;5029666;28;20033;-77
2021/07/05 04:56:57;;;;;;;1.20;0.90;;;;;;;;;;5030018;28;20431;-66
2021/07/05 04:59:22;;;;;;;1.65;0.93;;;;;;;;;;5027543;28;20057;-66
2021/07/05 05:01:47;;;;;;;1.20;0.70;;;;;;;;;;5029303;28;20025;-67
2021/07/05 05:04:13;;;;;;;1.63;0.70;;;;;;;;;;5029187;28;20276;-66
2021/07/05 05:06:38;;;;;;;1.27;0.82;;;;;;;;;;5028714;28;20026;-67
2021/07/05 05:09:03;;;;;;;2.63;0.98;;;;;;;;;;5038980;28;20021;-66
2021/07/05 05:11:29;;;;;;;2.25;0.75;;;;;;;;;;5036008;28;20025;-66
2021/07/05 05:13:54;;;;;;;2.03;0.80;;;;;;;;;;5027544;28;20394;-66
2021/07/05 05:16:19;;;;;;;1.85;0.80;;;;;;;;;;5024245;28;20017;-66
2021/07/05 05:18:44;;;;;;;0.63;0.60;;;;;;;;;;5030372;28;20037;-66
2021/07/05 05:21:10;;;;;;;2.05;0.75;;;;;;;;;;5033470;28;20033;-65
2021/07/05 05:23:35;;;;;;;1.67;0.73;;;;;;;;;;5028122;28;20041;-66
2021/07/05 05:26:00;;;;;;;1.85;0.80;;;;;;;;;;5030976;28;20028;-66
2021/07/05 05:28:26;;;;;;;1.95;0.90;;;;;;;;;;5027589;28;20021;-66
2021/07/05 05:30:51;;;;;;;0.82;0.63;;;;;;;;;;5027619;28;20102;-67
2021/07/05 05:33:16;;;;;;;1.08;0.80;;;;;;;;;;5029644;28;20128;-66
2021/07/05 05:35:41;;;;;;;1.95;0.85;;;;;;;;;;5038331;28;20013;-67
2021/07/05 05:38:07;;;;;;;1.83;0.80;;;;;;;;;;5034102;28;20017;-67
2021/07/05 05:40:32;;;;;;;1.30;0.60;;;;;;;;;;5035549;28;20032;-67
2021/07/05 05:42:57;;;;;;;2.45;0.82;;;;;;;;;;5030758;28;20053;-66
2021/07/05 05:45:22;;;;;;;3.60;0.60;;;;;;;;;;5024752;28;20049;-68
2021/07/05 05:47:48;;;;;;;1.02;0.73;;;;;;;;;;5033500;28;20264;-65
2021/07/05 05:50:13;;;;;;;1.67;0.93;;;;;;;;;;5026017;28;20046;-67
2021/07/05 05:52:39;;;;;;;1.20;0.70;;;;;;;;;;5032374;28;20037;-66
2021/07/05 05:55:05;;;;;;;1.08;0.80;;;;;;;;;;5037343;28;20076;-67
2021/07/05 05:57:31;;;;;;;1.67;0.85;;;;;;;;;;5026820;28;20069;-64
2021/07/05 05:59:58;;;;;;;1.10;0.60;;;;;;;;;;5032397;28;20068;-66
2021/07/05 06:02:24;;;;;;;1.00;0.60;;;;;;;;;;5034991;28;20091;-66
2021/07/05 06:04:49;;;;;;;1.73;0.80;;;;;;;;;;5039557;28;20025;-65
2021/07/05 06:07:15;;;;;;;1.85;0.90;;;;;;;;;;5037405;28;21691;-64
2021/07/05 06:09:40;;;;;;;1.33;0.77;;;;;;;;;;5037462;28;20032;-66
2021/07/05 06:12:06;;;;;;;4.85;0.75;;;;;;;;;;5041969;28;20032;-66
2021/07/05 06:14:31;;;;;;;1.23;0.70;;;;;;;;;;5034663;28;20087;-66
2021/07/05 06:16:56;;;;;;;1.17;0.70;;;;;;;;;;5037991;28;20057;-67
2021/07/05 06:19:21;;;;;;;1.40;0.68;;;;;;;;;;5028658;28;20488;-67
2021/07/05 06:21:46;;;;;;;1.73;0.70;;;;;;;;;;5030125;28;20926;-67
2021/07/05 06:24:12;;;;;;;1.95;0.70;;;;;;;;;;5035462;28;20300;-66
2021/07/05 06:26:37;;;;;;;0.50;0.50;;;;;;;;;;5036833;28;20310;-67
2021/07/05 06:29:02;;;;;;;1.33;0.63;;;;;;;;;;5041586;28;20815;-68
2021/07/05 06:31:27;;;;;;;1.05;0.73;;;;;;;;;;5034931;28;20260;-66
2021/07/05 06:33:52;;;;;;;0.47;0.47;;;;;;;;;;5038734;28;20021;-66
2021/07/05 06:36:18;;;;;;;0.70;0.50;;;;;;;;;;5035155;28;20030;-67
2021/07/05 06:38:43;;;;;;;4.40;0.65;;;;;;;;;;5032005;28;20759;-67
2021/07/05 06:41:08;;;;;;;0.93;0.60;;;;;;;;;;5036331;28;20493;-66
2021/07/05 06:43:34;;;;;;;3.58;0.80;;;;;;;;;;5040787;28;20044;-67
2021/07/05 06:45:59;;;;;;;0.70;0.60;;;;;;;;;;5040239;28;20086;-67
2021/07/05 06:48:24;;;;;;;2.30;0.77;;;;;;;;;;5035398;28;20025;-67
2021/07/05 06:50:49;;;;;;;3.10;0.63;;;;;;;;;;5028975;28;20747;-67
2021/07/05 06:53:14;;;;;;;0.80;0.50;;;;;;;;;;5046071;28;20041;-67
2021/07/05 06:55:40;;;;;;;1.47;0.80;;;;;;;;;;5051147;28;20014;-67
2021/07/05 06:58:05;;;;;;;1.98;0.60;;;;;;;;;;5034968;28;20366;-67
2021/07/05 07:00:31;;;;;;;0.77;0.60;;;;;;;;;;5036446;28;20029;-66
2021/07/05 07:02:57;;;;;;;2.28;0.70;;;;;;;;;;5042492;28;20123;-66
2021/07/05 07:05:23;;;;;;;1.55;0.55;;;;;;;;;;5049655;28;20377;-65
2021/07/05 07:07:49;;;;;;;1.70;0.80;;;;;;;;;;5053128;28;20025;-66
2021/07/05 07:10:17;;;;;;;3.20;0.75;;;;;;;;;;5049361;28;20044;-67
2021/07/05 07:12:46;;;;;;;2.20;0.90;;;;;;;;;;5032646;28;20029;-67
2021/07/05 07:15:12;;;;;;;2.20;0.80;;;;;;;;;;5051213;28;20021;-67
2021/07/05 07:17:42;;;;;;;1.48;0.60;;;;;;;;;;5051392;28;20027;-66
2021/07/05 07:20:10;;;;;;;1.13;0.70;;;;;;;;;;5041180;28;20029;-67
2021/07/05 07:22:35;;;;;;;1.35;0.63;;;;;;;;;;5037975;28;20536;-66
2021/07/05 07:25:00;;;;;;;2.08;0.65;;;;;;;;;;5039235;28;20036;-67
2021/07/05 07:27:26;;;;;;;0.63;0.60;;;;;;;;;;5051056;28;20456;-67
2021/07/05 07:29:51;;;;;;;0.95;0.55;;;;;;;;;;5050374;28;20021;-67
2021/07/05 07:32:16;;;;;;;1.50;0.70;;;;;;;;;;5043920;28;20025;-65
2021/07/05 07:34:41;;;;;;;2.07;0.80;;;;;;;;;;5050600;28;20357;-68
2021/07/05 07:37:08;;;;;;;1.17;0.68;;;;;;;;;;5038256;28;20581;-69
2021/07/05 07:39:41;;;;;;;1.67;0.57;;;;;;;;;;5031198;28;20040;-67
2021/07/05 07:42:06;;;;;;;1.95;0.63;;;;;;;;;;5037361;28;20055;-67
2021/07/05 07:44:34;;;;;;;1.75;0.68;;;;;;;;;;5050265;28;20754;-67
2021/07/05 07:46:59;;;;;;;0.85;0.70;;;;;;;;;;5044866;28;20052;-67
2021/07/05 07:49:25;;;;;;;1.58;0.80;;;;;;;;;;5036134;28;20025;-67
2021/07/05 07:51:50;;;;;;;1.80;0.73;;;;;;;;;;5032205;28;20100;-65
2021/07/05 07:54:15;;;;;;;2.00;0.70;;;;;;;;;;5041860;28;20041;-66
2021/07/05 07:56:40;;;;;;;1.13;0.70;;;;;;;;;;5043732;28;20025;-66
2021/07/05 07:59:05;;;;;;;2.10;0.73;;;;;;;;;;5046297;28;20481;-68
2021/07/05 08:01:31;;;;;;;3.73;0.80;;;;;;;;;;5034592;28;20314;-66
2021/07/05 08:03:56;;;;;;;1.27;0.88;;;;;;;;;;5042823;28;20699;-66
2021/07/05 08:06:21;;;;;;;2.30;0.77;;;;;;;;;;5043470;28;20074;-66
2021/07/05 08:08:49;;;;;;;1.10;0.70;;;;;;;;;;5041219;28;20021;-66
2021/07/05 08:11:14;;;;;;;1.92;0.80;;;;;;;;;;5037173;28;20027;-67
2021/07/05 08:13:40;;;;;;;2.17;0.70;;;;;;;;;;5038119;28;20028;-66
2021/07/05 08:16:05;;;;;;;1.08;0.52;;;;;;;;;;5044884;28;20025;-67
2021/07/05 08:18:30;;;;;;;1.70;0.63;;;;;;;;;;5050085;28;20036;-66
2021/07/05 08:20:55;;;;;;;1.35;0.80;;;;;;;;;;5049322;28;20263;-67
2021/07/05 08:23:21;;;;;;;1.52;0.80;;;;;;;;;;5049861;28;20025;-66
2021/07/05 08:25:46;;;;;;;0.80;0.60;;;;;;;;;;5035951;28;20029;-67
2021/07/05 08:28:11;;;;;;;1.80;0.90;;;;;;;;;;5030185;28;20058;-67
2021/07/05 08:30:37;;;;;;;0.90;0.60;;;;;;;;;;5042892;28;20092;-67
2021/07/05 08:33:02;;;;;;;2.15;0.77;;;;;;;;;;5037451;28;20361;-67
2021/07/05 08:35:27;;;;;;;1.10;1.00;;;;;;;;;;5031254;28;20020;-66
2021/07/05 08:37:56;;;;;;;1.55;0.77;;;;;;;;;;5046926;28;20025;-67
2021/07/05 08:40:21;;;;;;;0.73;0.50;;;;;;;;;;5049593;28;20100;-67
2021/07/05 08:42:47;;;;;;;1.95;0.80;;;;;;;;;;5035959;28;20469;-66
2021/07/05 08:45:13;;;;;;;1.38;0.70;;;;;;;;;;5049750;28;20021;-67
2021/07/05 08:47:40;;;;;;;1.92;0.70;;;;;;;;;;5032633;28;20025;-66
2021/07/05 08:50:06;;;;;;;0.70;0.63;;;;;;;;;;5040430;28;20016;-66
2021/07/05 08:52:32;;;;;;;1.88;0.90;;;;;;;;;;5045383;28;20018;-67
2021/07/05 08:54:58;;;;;;;1.40;0.70;;;;;;;;;;5033231;28;20713;-66
2021/07/05 08:57:36;;;;;;;1.13;0.70;;;;;;;;;;5033254;28;20013;-67
2021/07/05 09:00:02;;;;;;;1.42;0.93;;;;;;;;;;5041024;28;20028;-67
2021/07/05 09:02:28;;;;;;;2.00;0.80;;;;;;;;;;5031550;28;20100;-67
2021/07/05 09:04:53;;;;;;;1.10;0.77;;;;;;;;;;5033469;28;20100;-66
2021/07/05 09:07:18;;;;;;;3.33;0.73;;;;;;;;;;5047280;28;20611;-65
2021/07/05 09:10:00;;;;;;;1.02;0.70;;;;;;;;;;5029731;28;20068;-66
2021/07/05 09:12:25;;;;;;;1.27;0.80;;;;;;;;;;5029520;28;20223;-67
2021/07/05 09:15:02;;;;;;;2.75;0.90;;;;;;;;;;5042796;28;20122;-66
2021/07/05 09:17:31;;;;;;;1.27;0.80;;;;;;;;;;5029727;28;20747;-66
2021/07/05 09:19:56;;;;;;;2.13;0.80;;;;;;;;;;5035435;28;20021;-66
2021/07/05 09:22:22;;;;;;;0.80;0.60;;;;;;;;;;5035614;28;20518;-66
2021/07/05 09:24:47;;;;;;;0.90;0.70;;;;;;;;;;5042166;28;20251;-66
2021/07/05 09:27:19;;;;;;;2.43;1.03;;;;;;;;;;5031127;28;20260;-66
2021/07/05 09:29:45;;;;;;;2.58;0.88;;;;;;;;;;5032972;28;20635;-66
2021/07/05 09:32:11;;;;;;;2.22;0.82;;;;;;;;;;5036972;28;20026;-67
2021/07/05 09:34:38;;;;;;;2.17;0.80;;;;;;;;;;5029071;28;20046;-66
2021/07/05 09:37:22;;;;;;;1.33;0.88;;;;;;;;;;5033893;28;20108;-66
2021/07/05 09:40:03;;;;;;;0.77;0.60;;;;;;;;;;5022707;28;20020;-66
2021/07/05 09:42:29;;;;;;;2.38;0.82;;;;;;;;;;5028755;28;20089;-65
2021/07/05 09:44:56;;;;;;;2.67;0.90;;;;;;;;;;5043639;28;20020;-67
2021/07/05 09:47:25;;;;;;;1.52;0.80;;;;;;;;;;5034211;28;20452;-67
2021/07/05 09:49:50;;;;;;;2.38;0.68;;;;;;;;;;5041424;28;20060;-66
2021/07/05 09:52:20;;;;;;;2.20;0.80;;;;;;;;;;5029087;28;20057;-67
2021/07/05 09:54:48;;;;;;;1.60;0.70;;;;;;;;;;5027312;28;20440;-67
2021/07/05 09:57:26;;;;;;;0.60;0.60;;;;;;;;;;5035107;28;20021;-67
2021/07/05 10:00:10;;;;;;;1.63;0.70;;;;;;;;;;5047987;28;20025;-65
2021/07/05 10:02:36;;;;;;;4.45;0.90;;;;;;;;;;5029954;28;20423;-66
2021/07/05 10:05:17;;;;;;;2.10;0.90;;;;;;;;;;5028807;28;20060;-69
2021/07/05 10:07:43;;;;;;;3.42;0.80;;;;;;;;;;5046467;28;20464;-67
2021/07/05 10:10:15;;;;;;;1.30;0.70;;;;;;;;;;5035578;28;20096;-67
2021/07/05 10:13:00;;;;;;;1.77;0.90;;;;;;;;;;5034926;28;20023;-67
2021/07/05 10:15:26;;;;;;;2.75;0.73;;;;;;;;;;5031726;28;20025;-67
2021/07/05 10:17:53;;;;;;;1.80;0.70;;;;;;;;;;5028758;28;20437;-66
2021/07/05 10:20:25;;;;;;;1.05;0.68;;;;;;;;;;5041903;28;20064;-66
2021/07/05 10:22:51;;;;;;;1.95;0.75;;;;;;;;;;5028462;28;20030;-68
2021/07/05 10:25:17;;;;;;;1.27;0.70;;;;;;;;;;5036133;28;20491;-67
2021/07/05 10:27:42;;;;;;;1.35;0.60;;;;;;;;;;5026878;28;20017;-67
2021/07/05 10:30:09;;;;;;;1.35;0.60;;;;;;;;;;5028935;28;20426;-66
2021/07/05 10:32:34;;;;;;;1.27;0.70;;;;;;;;;;5041863;28;20053;-66
2021/07/05 10:35:00;;;;;;;1.15;0.77;;;;;;;;;;5027960;28;20036;-67
2021/07/05 10:37:43;;;;;;;1.13;0.68;;;;;;;;;;5028559;28;20041;-66
2021/07/05 10:40:10;;;;;;;1.27;0.63;;;;;;;;;;5035725;28;20423;-67
2021/07/05 10:42:39;;;;;;;1.05;0.70;;;;;;;;;;5030596;28;20052;-67
2021/07/05 10:45:07;;;;;;;1.90;0.65;;;;;;;;;;5041548;28;20053;-68
2021/07/05 10:47:43;;;;;;;0.70;0.70;;;;;;;;;;5040820;28;20122;-67
2021/07/05 10:50:28;;;;;;;1.67;0.60;;;;;;;;;;5040977;28;20029;-67
2021/07/05 10:52:54;;;;;;;1.85;0.80;;;;;;;;;;5031908;28;20037;-66
2021/07/05 10:55:39;;;;;;;1.33;0.80;;;;;;;;;;5037455;28;20392;-67
2021/07/05 10:58:14;;;;;;;1.15;0.70;;;;;;;;;;5029298;28;20485;-66
2021/07/05 11:00:41;;;;;;;1.67;0.73;;;;;;;;;;5049195;28;20060;-66
2021/07/05 11:03:06;;;;;;;1.67;0.90;;;;;;;;;;5032099;28;20483;-67
2021/07/05 11:05:51;;;;;;;1.83;0.68;;;;;;;;;;5039729;28;20111;-66
2021/07/05 11:08:20;;;;;;;1.35;0.60;;;;;;;;;;5038877;28;20113;-67
2021/07/05 11:10:46;;;;;;;;;;;;;;;;;;5042935;28;20499;-67
2021/07/05 11:13:11;;;;;;;0.60;0.52;;;;;;;;;;5050848;28;20407;-66
2021/07/05 11:15:47;;;;;;;1.00;0.70;;;;;;;;;;5050994;28;20017;-67
2021/07/05 11:18:31;;;;;;;1.63;0.63;;;;;;;;;;5042740;28;20469;-67
2021/07/05 11:20:56;;;;;;;1.27;0.77;;;;;;;;;;5025140;28;20030;-67
2021/07/05 11:23:21;;;;;;;1.95;0.88;;;;;;;;;;5050881;28;20023;-67
2021/07/05 11:25:46;;;;;;;1.83;0.50;;;;;;;;;;5050937;28;20021;-67
2021/07/05 11:28:17;;;;;;;0.80;0.67;;;;;;;;;;5045196;28;20627;-67
2021/07/05 11:30:44;;;;;;;2.17;0.57;;;;;;;;;;5037364;28;20426;-66
2021/07/05 11:33:09;;;;;;;0.95;0.73;;;;;;;;;;5031163;28;20029;-67
2021/07/05 11:35:44;;;;;;;1.33;0.70;;;;;;;;;;5020586;28;20018;-67
2021/07/05 11:38:09;;;;;;;0.88;0.73;;;;;;;;;;5036267;28;20170;-66
2021/07/05 11:40:42;;;;;;;1.02;0.70;;;;;;;;;;5031488;28;20120;-66
2021/07/05 11:43:08;;;;;;;3.70;0.80;;;;;;;;;;5035747;28;20049;-66
2021/07/05 11:45:52;;;;;;;0.85;0.70;;;;;;;;;;5031376;28;20514;-65
2021/07/05 11:48:36;;;;;;;0.88;0.80;;;;;;;;;;5030065;28;20013;-66
2021/07/05 11:51:01;;;;;;;1.42;0.80;;;;;;;;;;5034693;28;20608;-67
2021/07/05 11:53:26;;;;;;;4.23;0.83;;;;;;;;;;5034001;28;20030;-66
2021/07/05 11:55:51;;;;;;;1.43;0.90;;;;;;;;;;5031018;28;20325;-67
2021/07/05 11:58:16;;;;;;;3.23;1.07;;;;;;;;;;5044103;28;20264;-67
2021/07/05 12:00:42;;;;;;;1.30;0.65;;;;;;;;;;5028338;28;20276;-66
2021/07/05 12:03:09;;;;;;;1.70;0.70;;;;;;;;;;5037421;28;20461;-63
2021/07/05 12:05:35;;;;;;;1.38;0.85;;;;;;;;;;5038469;28;20099;-67
2021/07/05 12:08:05;;;;;;;2.40;0.80;;;;;;;;;;5034830;28;20022;-67
2021/07/05 12:10:31;;;;;;;5.00;0.70;;;;;;;;;;5024679;28;20033;-67
2021/07/05 12:13:12;;;;;;;0.65;0.65;;;;;;;;;;5028966;28;20113;-66
2021/07/05 12:15:38;;;;;;;2.08;0.90;;;;;;;;;;5028523;28;20024;-67
2021/07/05 12:18:03;;;;;;;1.08;0.70;;;;;;;;;;5040745;28;20021;-66
2021/07/05 12:20:28;;;;;;;1.90;1.00;;;;;;;;;;5033873;28;20025;-66
2021/07/05 12:22:53;;;;;;;1.02;0.85;;;;;;;;;;5039091;28;20021;-66
2021/07/05 12:25:19;;;;;;;1.98;0.80;;;;;;;;;;5032682;28;20106;-65
2021/07/05 12:27:44;;;;;;;2.17;0.82;;;;;;;;;;5032859;28;20028;-67
2021/07/05 12:30:12;;;;;;;1.67;0.63;;;;;;;;;;5038036;28;20029;-66
2021/07/05 12:32:38;;;;;;;1.65;0.80;;;;;;;;;;5045092;28;20029;-66
2021/07/05 12:35:04;;;;;;;1.42;0.82;;;;;;;;;;5030320;28;20033;-65
2021/07/05 12:37:34;;;;;;;0.70;0.70;;;;;;;;;;5033678;28;20473;-66
2021/07/05 12:40:18;;;;;;;0.88;0.63;;;;;;;;;;5030134;28;20112;-67
2021/07/05 12:42:44;;;;;;;0.90;0.70;;;;;;;;;;5045307;28;20439;-66
2021/07/05 12:45:14;;;;;;;0.93;0.70;;;;;;;;;;5037319;28;20108;-66
2021/07/05 12:47:57;;;;;;;3.53;1.00;;;;;;;;;;5037170;28;20266;-66
2021/07/05 12:50:27;;;;;;;2.15;0.80;;;;;;;;;;5029156;28;20057;-66
2021/07/05 12:53:00;;;;;;;1.38;0.73;;;;;;;;;;5028216;28;20025;-65
2021/07/05 12:55:25;;;;;;;1.88;0.80;;;;;;;;;;5026384;28;20115;-69
2021/07/05 12:57:51;;;;;;;0.88;0.70;;;;;;;;;;5023652;28;20052;-65
2021/07/05 13:00:17;;;;;;;0.75;0.52;;;;;;;;;;5030334;28;20764;-66
2021/07/05 13:02:43;;;;;;;2.45;0.70;;;;;;;;;;5028436;28;20384;-66
2021/07/05 13:05:08;;;;;;;1.77;0.77;;;;;;;;;;5026976;28;20025;-66
2021/07/05 13:07:33;;;;;;;1.17;0.80;;;;;;;;;;5034200;28;20339;-65
2021/07/05 13:09:59;;;;;;;1.13;0.77;;;;;;;;;;5030556;28;20388;-66
2021/07/05 13:12:25;;;;;;;1.45;0.70;;;;;;;;;;5028106;28;20024;-66
2021/07/05 13:14:50;;;;;;;1.45;0.90;;;;;;;;;;5024840;28;20029;-66
2021/07/05 13:17:20;;;;;;;2.50;0.80;;;;;;;;;;5029836;28;20526;-66
2021/07/05 13:19:51;;;;;;;1.00;0.68;;;;;;;;;;5040315;28;20276;-65
2021/07/05 13:22:19;;;;;;;0.95;0.63;;;;;;;;;;5030905;28;20021;-67
2021/07/05 13:25:13;;;;;;;0.82;0.70;;;;;;;;;;5030380;28;20056;-66
2021/07/05 13:27:38;;;;;;;1.88;0.80;;;;;;;;;;5027971;28;20115;-67
2021/07/05 13:30:11;;;;;;;1.50;0.60;;;;;;;;;;5027476;28;20064;-66
2021/07/05 13:32:49;;;;;;;2.15;0.70;;;;;;;;;;5028524;28;20021;-66
2021/07/05 13:35:14;;;;;;;1.70;0.70;;;;;;;;;;5040390;28;20026;-65
2021/07/05 13:37:45;;;;;;;1.60;0.77;;;;;;;;;;5028483;28;20048;-66
2021/07/05 13:40:12;;;;;;;2.08;0.90;;;;;;;;;;5034524;28;20754;-65
2021/07/05 13:42:40;;;;;;;1.27;0.90;;;;;;;;;;5036518;28;20046;-66
2021/07/05 13:45:25;;;;;;;1.08;0.90;;;;;;;;;;5039620;28;20020;-65
2021/07/05 13:47:59;;;;;;;1.27;0.80;;;;;;;;;;5028647;28;20032;-65
2021/07/05 13:50:25;;;;;;;2.65;0.90;;;;;;;;;;5030153;28;20029;-65
2021/07/05 13:52:55;;;;;;;1.35;0.80;;;;;;;;;;5030503;28;20029;-66
2021/07/05 13:55:28;;;;;;;2.00;0.90;;;;;;;;;;5039634;28;20108;-66
2021/07/05 13:57:56;;;;;;;2.85;1.05;;;;;;;;;;5028605;28;20052;-66
2021/07/05 14:00:22;;;;;;;1.65;0.82;;;;;;;;;;5033332;28;20485;-66
2021/07/05 14:02:47;;;;;;;0.65;0.60;;;;;;;;;;5037835;28;20077;-66
2021/07/05 14:05:21;;;;;;;3.00;0.80;;;;;;;;;;5032231;28;20107;-66
2021/07/05 14:07:47;;;;;;;2.33;0.85;;;;;;;;;;5032807;28;20295;-66
2021/07/05 14:10:12;;;;;;;1.48;0.68;;;;;;;;;;5037711;28;20017;-67
2021/07/05 14:12:37;;;;;;;3.58;0.98;;;;;;;;;;5028661;28;20045;-66
2021/07/05 14:15:03;;;;;;;2.08;0.80;;;;;;;;;;5029117;28;20025;-66
2021/07/05 14:17:29;;;;;;;1.98;0.70;;;;;;;;;;5046130;28;20028;-67
2021/07/05 14:19:54;;;;;;;1.23;1.03;;;;;;;;;;5051602;28;20025;-66
2021/07/05 14:22:19;;;;;;;1.80;0.80;;;;;;;;;;5042227;28;20295;-66
2021/07/05 14:24:45;;;;;;;0.82;0.52;;;;;;;;;;5036405;28;20033;-66
2021/07/05 14:27:10;;;;;;;2.80;0.85;;;;;;;;;;5042117;28;20090;-66
2021/07/05 14:29:35;;;;;;;1.00;0.53;;;;;;;;;;5032200;28;20775;-66
2021/07/05 14:32:00;;;;;;;2.90;0.70;;;;;;;;;;5047104;28;20339;-67
2021/07/05 14:34:25;;;;;;;1.50;0.60;;;;;;;;;;5045191;28;20072;-67
2021/07/05 14:36:51;;;;;;;1.10;0.70;;;;;;;;;;5031103;28;20268;-66
2021/07/05 14:39:16;;;;;;;2.00;0.70;;;;;;;;;;5027688;28;20127;-66
2021/07/05 14:41:41;;;;;;;1.30;0.60;;;;;;;;;;5036988;28;20657;-67